createdAt,value
2017-07-15T00:00:52.865Z,0
2017-07-15T00:01:52.889Z,0
2017-07-15T00:02:52.888Z,0
2017-07-15T00:03:52.890Z,0
2017-07-15T00:04:52.890Z,0
2017-07-15T00:05:52.928Z,0
2017-07-15T00:06:52.861Z,0
2017-07-15T00:07:52.928Z,0
2017-07-15T00:08:53.021Z,0
2017-07-15T00:09:52.893Z,0
2017-07-15T00:10:52.877Z,0
2017-07-15T00:11:52.896Z,0
2017-07-15T00:12:52.897Z,0
2017-07-15T00:13:52.943Z,0
2017-07-15T00:14:52.982Z,0
2017-07-15T00:15:52.888Z,0
2017-07-15T00:16:52.944Z,0
2017-07-15T00:17:52.946Z,0
2017-07-15T00:18:52.965Z,0
2017-07-15T00:19:52.912Z,0
2017-07-15T00:20:52.843Z,0
2017-07-15T00:21:52.884Z,0
2017-07-15T00:22:52.844Z,0
2017-07-15T00:23:52.904Z,0
2017-07-15T00:24:52.874Z,0
2017-07-15T00:25:52.901Z,0
2017-07-15T00:26:52.852Z,0
2017-07-15T00:27:52.862Z,0
2017-07-15T00:28:52.905Z,0
2017-07-15T00:29:52.944Z,0
2017-07-15T00:30:52.874Z,0
2017-07-15T00:31:52.903Z,0
2017-07-15T00:32:52.902Z,0
2017-07-15T00:33:52.902Z,0
2017-07-15T00:34:52.903Z,0
2017-07-15T00:35:52.903Z,0
2017-07-15T00:36:52.882Z,0
2017-07-15T00:37:52.941Z,0
2017-07-15T00:38:52.948Z,0
2017-07-15T00:39:52.873Z,0
2017-07-15T00:40:52.902Z,0
2017-07-15T00:41:52.903Z,0
2017-07-15T00:42:52.884Z,0
2017-07-15T00:43:52.833Z,0
2017-07-15T00:44:52.835Z,0
2017-07-15T00:45:52.935Z,0
2017-07-15T00:46:52.848Z,0
2017-07-15T00:47:52.846Z,0
2017-07-15T00:48:52.848Z,0
2017-07-15T00:49:52.839Z,0
2017-07-15T00:50:52.839Z,0
2017-07-15T00:51:52.841Z,0
2017-07-15T00:52:52.940Z,0
2017-07-15T00:53:52.916Z,0
2017-07-15T00:54:52.873Z,0
2017-07-15T00:55:52.918Z,0
2017-07-15T00:56:52.892Z,0
2017-07-15T00:57:52.918Z,0
2017-07-15T00:58:52.900Z,0
2017-07-15T00:59:52.870Z,0
2017-07-15T01:00:52.896Z,0
2017-07-15T01:01:52.924Z,0
2017-07-15T01:03:52.885Z,0
2017-07-15T01:04:52.966Z,0
2017-07-15T01:05:52.913Z,0
2017-07-15T01:06:52.924Z,0
2017-07-15T01:07:52.970Z,0
2017-07-15T01:08:52.900Z,0
2017-07-15T01:09:52.898Z,0
2017-07-15T01:10:52.901Z,0
2017-07-15T01:11:52.872Z,0
2017-07-15T01:12:52.881Z,0
2017-07-15T01:13:52.908Z,0
2017-07-15T01:14:52.930Z,0
2017-07-15T01:15:52.942Z,0
2017-07-15T01:16:52.912Z,0
2017-07-15T01:17:52.910Z,0
2017-07-15T01:18:52.928Z,0
2017-07-15T01:19:52.906Z,0
2017-07-15T01:20:52.911Z,0
2017-07-15T01:21:52.935Z,0
2017-07-15T01:22:52.915Z,0
2017-07-15T01:23:52.967Z,0
2017-07-15T01:24:52.945Z,0
2017-07-15T01:25:52.952Z,0
2017-07-15T01:26:52.924Z,0
2017-07-15T01:27:52.971Z,0
2017-07-15T01:28:52.979Z,0
2017-07-15T01:29:52.911Z,0
2017-07-15T01:30:52.948Z,0
2017-07-15T01:31:52.963Z,0
2017-07-15T01:32:52.923Z,0
2017-07-15T01:33:52.985Z,0
2017-07-15T01:34:53.014Z,0
2017-07-15T01:35:52.980Z,0
2017-07-15T01:36:52.986Z,0
2017-07-15T01:37:52.943Z,0
2017-07-15T01:38:52.971Z,0
2017-07-15T01:39:52.928Z,0
2017-07-15T01:40:52.920Z,0
2017-07-15T01:41:52.989Z,0
2017-07-15T01:42:52.919Z,0
2017-07-15T01:43:52.993Z,0
2017-07-15T01:44:52.986Z,0
2017-07-15T01:45:52.973Z,0
2017-07-15T01:46:52.927Z,0
2017-07-15T01:47:52.948Z,0
2017-07-15T01:48:52.996Z,0
2017-07-15T01:49:52.922Z,0
2017-07-15T01:50:53.017Z,0
2017-07-15T01:51:52.959Z,0
2017-07-15T01:52:53.021Z,0
2017-07-15T01:53:52.903Z,0
2017-07-15T01:54:52.892Z,0
2017-07-15T01:55:52.850Z,0
2017-07-15T01:56:52.917Z,0
2017-07-15T01:57:52.917Z,0
2017-07-15T01:58:52.898Z,0
2017-07-15T01:59:52.933Z,0
2017-07-15T02:00:52.840Z,0
2017-07-15T02:01:52.919Z,0
2017-07-15T02:02:52.925Z,0
2017-07-15T02:03:52.931Z,0
2017-07-15T02:04:52.985Z,0
2017-07-15T02:05:52.970Z,0
2017-07-15T02:06:52.938Z,0
2017-07-15T02:07:52.937Z,0
2017-07-15T02:08:52.937Z,0
2017-07-15T02:09:52.973Z,0
2017-07-15T02:10:52.961Z,0
2017-07-15T02:11:53.018Z,0
2017-07-15T02:12:52.931Z,0
2017-07-15T02:13:52.986Z,0
2017-07-15T02:14:52.945Z,0
2017-07-15T02:15:52.929Z,0
2017-07-15T02:16:52.939Z,0
2017-07-15T02:17:52.958Z,0
2017-07-15T02:18:52.967Z,0
2017-07-15T02:19:52.953Z,0
2017-07-15T02:20:52.924Z,0
2017-07-15T02:21:53.091Z,0
2017-07-15T02:22:52.940Z,0
2017-07-15T02:23:52.935Z,0
2017-07-15T02:24:52.965Z,0
2017-07-15T02:25:52.964Z,0
2017-07-15T02:26:52.970Z,0
2017-07-15T02:27:52.964Z,0
2017-07-15T02:28:53.002Z,0
2017-07-15T02:29:53.002Z,0
2017-07-15T02:30:53.000Z,0
2017-07-15T02:31:53.005Z,0
2017-07-15T02:32:52.970Z,0
2017-07-15T02:33:53.024Z,0
2017-07-15T02:34:52.970Z,0
2017-07-15T02:35:52.966Z,0
2017-07-15T02:36:52.938Z,0
2017-07-15T02:37:52.942Z,0
2017-07-15T02:38:52.943Z,0
2017-07-15T02:39:53.005Z,0
2017-07-15T02:40:53.009Z,0
2017-07-15T02:41:52.973Z,0
2017-07-15T02:42:52.947Z,0
2017-07-15T02:43:52.971Z,0
2017-07-15T02:44:52.929Z,0
2017-07-15T02:45:53.021Z,0
2017-07-15T02:46:52.934Z,0
2017-07-15T02:47:52.929Z,0
2017-07-15T02:48:52.980Z,0
2017-07-15T02:49:52.931Z,0
2017-07-15T02:50:52.938Z,0
2017-07-15T02:51:52.937Z,0
2017-07-15T02:52:52.944Z,0
2017-07-15T02:53:52.928Z,0
2017-07-15T02:54:52.979Z,0
2017-07-15T02:55:52.913Z,0
2017-07-15T02:56:53.027Z,0
2017-07-15T02:57:53.022Z,0
2017-07-15T02:58:52.981Z,0
2017-07-15T02:59:52.970Z,0
2017-07-15T03:01:52.987Z,0
2017-07-15T03:02:52.934Z,0
2017-07-15T03:03:53.033Z,0
2017-07-15T03:04:52.978Z,0
2017-07-15T03:05:52.947Z,0
2017-07-15T03:06:52.936Z,0
2017-07-15T03:07:52.936Z,0
2017-07-15T03:08:52.995Z,0
2017-07-15T03:09:53.033Z,0
2017-07-15T03:10:52.940Z,0
2017-07-15T03:11:52.944Z,0
2017-07-15T03:12:52.984Z,0
2017-07-15T03:13:52.978Z,0
2017-07-15T03:14:53.025Z,5
2017-07-15T03:15:53.029Z,5
2017-07-15T03:16:52.971Z,5
2017-07-15T03:17:53.034Z,5
2017-07-15T03:18:52.997Z,5
2017-07-15T03:19:52.968Z,5
2017-07-15T03:20:52.967Z,5
2017-07-15T03:21:52.969Z,5
2017-07-15T03:22:52.968Z,5
2017-07-15T03:23:53.031Z,5
2017-07-15T03:24:53.046Z,5
2017-07-15T03:25:53.005Z,5
2017-07-15T03:26:52.980Z,11
2017-07-15T03:27:53.052Z,11
2017-07-15T03:28:53.081Z,11
2017-07-15T03:29:52.977Z,16
2017-07-15T03:30:53.017Z,16
2017-07-15T03:31:53.042Z,16
2017-07-15T03:32:52.993Z,16
2017-07-15T03:33:53.106Z,16
2017-07-15T03:34:53.013Z,16
2017-07-15T03:35:52.982Z,22
2017-07-15T03:36:53.012Z,22
2017-07-15T03:37:53.020Z,22
2017-07-15T03:38:53.074Z,22
2017-07-15T03:39:53.055Z,22
2017-07-15T03:40:53.078Z,22
2017-07-15T03:41:53.012Z,22
2017-07-15T03:42:53.045Z,22
2017-07-15T03:43:52.987Z,22
2017-07-15T03:44:53.018Z,22
2017-07-15T03:45:53.076Z,28
2017-07-15T03:46:53.009Z,33
2017-07-15T03:47:52.990Z,39
2017-07-15T03:48:52.983Z,39
2017-07-15T03:49:52.985Z,45
2017-07-15T03:50:52.980Z,50
2017-07-15T03:51:53.015Z,56
2017-07-15T03:52:52.980Z,67
2017-07-15T03:53:53.009Z,84
2017-07-15T03:54:53.026Z,101
2017-07-15T03:55:53.047Z,123
2017-07-15T03:56:53.002Z,135
2017-07-15T03:57:53.085Z,123
2017-07-15T03:58:53.015Z,118
2017-07-15T03:59:53.033Z,129
2017-07-15T04:00:53.050Z,135
2017-07-15T04:01:53.049Z,123
2017-07-15T04:02:52.998Z,118
2017-07-15T04:03:53.073Z,118
2017-07-15T04:04:53.056Z,123
2017-07-15T04:05:53.030Z,118
2017-07-15T04:06:52.995Z,112
2017-07-15T04:07:52.995Z,101
2017-07-15T04:08:53.018Z,101
2017-07-15T04:09:52.997Z,90
2017-07-15T04:10:52.972Z,78
2017-07-15T04:11:53.062Z,73
2017-07-15T04:12:52.978Z,67
2017-07-15T04:13:53.143Z,67
2017-07-15T04:14:53.077Z,67
2017-07-15T04:15:53.057Z,67
2017-07-15T04:16:53.008Z,73
2017-07-15T04:17:53.078Z,67
2017-07-15T04:18:53.062Z,56
2017-07-15T04:19:53.010Z,50
2017-07-15T04:20:53.062Z,50
2017-07-15T04:21:53.080Z,50
2017-07-15T04:22:53.014Z,45
2017-07-15T04:23:53.034Z,45
2017-07-15T04:24:53.049Z,45
2017-07-15T04:25:53.082Z,50
2017-07-15T04:26:53.037Z,56
2017-07-15T04:27:53.091Z,56
2017-07-15T04:28:53.103Z,61
2017-07-15T04:29:53.043Z,67
2017-07-15T04:30:53.013Z,67
2017-07-15T04:31:53.050Z,73
2017-07-15T04:32:53.011Z,95
2017-07-15T04:33:53.046Z,112
2017-07-15T04:34:53.045Z,106
2017-07-15T04:35:53.017Z,118
2017-07-15T04:36:53.047Z,123
2017-07-15T04:37:53.105Z,129
2017-07-15T04:38:53.022Z,129
2017-07-15T04:39:53.074Z,135
2017-07-15T04:40:53.089Z,151
2017-07-15T04:41:53.074Z,163
2017-07-15T04:42:53.052Z,157
2017-07-15T04:43:53.080Z,163
2017-07-15T04:44:53.115Z,151
2017-07-15T04:45:53.029Z,146
2017-07-15T04:46:53.063Z,135
2017-07-15T04:47:53.117Z,135
2017-07-15T04:48:53.055Z,123
2017-07-15T04:49:53.100Z,118
2017-07-15T04:50:53.095Z,123
2017-07-15T04:51:53.021Z,123
2017-07-15T04:52:53.116Z,129
2017-07-15T04:53:53.065Z,135
2017-07-15T04:54:53.099Z,135
2017-07-15T04:55:53.101Z,123
2017-07-15T04:56:53.088Z,135
2017-07-15T04:57:53.122Z,135
2017-07-15T04:58:53.032Z,146
2017-07-15T04:59:53.088Z,157
2017-07-15T05:00:53.130Z,180
2017-07-15T05:01:53.070Z,185
2017-07-15T05:02:53.065Z,230
2017-07-15T05:03:53.095Z,281
2017-07-15T05:04:53.039Z,286
2017-07-15T05:05:53.074Z,298
2017-07-15T05:06:53.043Z,337
2017-07-15T05:07:53.091Z,410
2017-07-15T05:08:53.042Z,393
2017-07-15T05:09:53.110Z,393
2017-07-15T05:10:53.073Z,399
2017-07-15T05:11:53.106Z,382
2017-07-15T05:12:53.100Z,343
2017-07-15T05:13:53.066Z,315
2017-07-15T05:14:53.113Z,343
2017-07-15T05:15:53.062Z,393
2017-07-15T05:16:53.060Z,421
2017-07-15T05:17:53.097Z,466
2017-07-15T05:18:53.033Z,511
2017-07-15T05:19:53.073Z,455
2017-07-15T05:20:53.069Z,421
2017-07-15T05:21:53.037Z,405
2017-07-15T05:22:53.035Z,399
2017-07-15T05:23:53.097Z,365
2017-07-15T05:24:53.050Z,354
2017-07-15T05:25:53.043Z,365
2017-07-15T05:26:53.045Z,388
2017-07-15T05:27:53.113Z,410
2017-07-15T05:28:53.083Z,466
2017-07-15T05:29:53.053Z,495
2017-07-15T05:30:53.090Z,461
2017-07-15T05:31:53.143Z,399
2017-07-15T05:32:53.048Z,382
2017-07-15T05:33:53.122Z,376
2017-07-15T05:34:53.145Z,376
2017-07-15T05:35:53.115Z,348
2017-07-15T05:36:53.128Z,337
2017-07-15T05:37:53.089Z,337
2017-07-15T05:38:53.142Z,348
2017-07-15T05:39:53.124Z,365
2017-07-15T05:40:53.110Z,393
2017-07-15T05:41:53.054Z,365
2017-07-15T05:42:53.058Z,309
2017-07-15T05:43:53.082Z,275
2017-07-15T05:44:53.063Z,292
2017-07-15T05:45:53.121Z,281
2017-07-15T05:46:53.123Z,236
2017-07-15T05:47:53.124Z,230
2017-07-15T05:48:53.058Z,230
2017-07-15T05:49:53.066Z,253
2017-07-15T05:50:53.091Z,298
2017-07-15T05:51:53.160Z,264
2017-07-15T05:52:53.129Z,230
2017-07-15T05:53:53.096Z,236
2017-07-15T05:54:53.060Z,270
2017-07-15T05:55:53.061Z,309
2017-07-15T05:56:53.096Z,326
2017-07-15T05:57:53.118Z,348
2017-07-15T05:58:53.134Z,326
2017-07-15T05:59:53.071Z,275
2017-07-15T06:00:53.122Z,253
2017-07-15T06:01:53.142Z,230
2017-07-15T06:02:53.066Z,258
2017-07-15T06:03:53.126Z,286
2017-07-15T06:04:53.106Z,331
2017-07-15T06:05:53.140Z,365
2017-07-15T06:06:53.160Z,371
2017-07-15T06:07:53.107Z,376
2017-07-15T06:08:53.074Z,376
2017-07-15T06:09:53.167Z,421
2017-07-15T06:10:53.100Z,410
2017-07-15T06:11:53.090Z,421
2017-07-15T06:12:53.165Z,450
2017-07-15T06:13:53.148Z,483
2017-07-15T06:14:53.127Z,528
2017-07-15T06:15:53.126Z,528
2017-07-15T06:16:53.100Z,455
2017-07-15T06:17:53.163Z,393
2017-07-15T06:18:53.066Z,388
2017-07-15T06:19:53.066Z,416
2017-07-15T06:20:53.253Z,444
2017-07-15T06:21:53.137Z,478
2017-07-15T06:22:53.072Z,466
2017-07-15T06:23:53.131Z,444
2017-07-15T06:24:53.100Z,399
2017-07-15T06:25:53.106Z,399
2017-07-15T06:26:53.078Z,466
2017-07-15T06:27:53.102Z,483
2017-07-15T06:28:53.077Z,450
2017-07-15T06:29:53.149Z,455
2017-07-15T06:30:53.065Z,618
2017-07-15T06:31:53.088Z,759
2017-07-15T06:32:53.106Z,793
2017-07-15T06:33:53.096Z,686
2017-07-15T06:34:53.108Z,590
2017-07-15T06:35:53.197Z,601
2017-07-15T06:36:53.077Z,630
2017-07-15T06:37:53.011Z,641
2017-07-15T06:38:53.011Z,556
2017-07-15T06:39:53.081Z,517
2017-07-15T06:40:53.091Z,607
2017-07-15T06:41:53.018Z,646
2017-07-15T06:42:53.087Z,641
2017-07-15T06:43:53.096Z,731
2017-07-15T06:44:53.028Z,770
2017-07-15T06:45:53.093Z,731
2017-07-15T06:46:53.104Z,832
2017-07-15T06:47:53.076Z,894
2017-07-15T06:48:53.087Z,860
2017-07-15T06:49:53.111Z,956
2017-07-15T06:50:53.095Z,1046
2017-07-15T06:51:53.116Z,1125
2017-07-15T06:52:53.036Z,1108
2017-07-15T06:53:53.074Z,1299
2017-07-15T06:54:53.134Z,1445
2017-07-15T06:55:53.082Z,1693
2017-07-15T06:56:53.094Z,2058
2017-07-15T06:57:53.146Z,2098
2017-07-15T06:58:53.083Z,1890
2017-07-15T06:59:53.099Z,1445
2017-07-15T07:00:53.097Z,1321
2017-07-15T07:01:53.119Z,1147
2017-07-15T07:02:53.097Z,984
2017-07-15T07:03:53.102Z,1006
2017-07-15T07:04:53.075Z,1051
2017-07-15T07:05:53.121Z,1040
2017-07-15T07:06:53.116Z,1068
2017-07-15T07:07:53.090Z,1102
2017-07-15T07:08:53.113Z,1035
2017-07-15T07:09:53.118Z,1001
2017-07-15T07:10:53.085Z,1035
2017-07-15T07:11:53.123Z,1130
2017-07-15T07:12:53.042Z,1085
2017-07-15T07:13:53.044Z,1074
2017-07-15T07:14:53.132Z,1164
2017-07-15T07:15:53.110Z,1203
2017-07-15T07:16:53.200Z,1237
2017-07-15T07:17:53.203Z,1333
2017-07-15T07:18:53.184Z,1507
2017-07-15T07:19:53.107Z,1496
2017-07-15T07:20:53.136Z,1411
2017-07-15T07:21:53.136Z,1265
2017-07-15T07:22:53.116Z,1237
2017-07-15T07:23:53.203Z,1198
2017-07-15T07:24:53.142Z,1198
2017-07-15T07:25:53.166Z,1153
2017-07-15T07:26:53.146Z,1130
2017-07-15T07:27:53.113Z,1338
2017-07-15T07:28:53.172Z,1428
2017-07-15T07:29:53.185Z,1389
2017-07-15T07:30:53.210Z,1423
2017-07-15T07:31:53.148Z,1383
2017-07-15T07:32:53.153Z,1316
2017-07-15T07:33:53.213Z,1299
2017-07-15T07:34:53.185Z,1372
2017-07-15T07:35:53.178Z,1490
2017-07-15T07:36:53.154Z,1625
2017-07-15T07:37:53.214Z,1659
2017-07-15T07:38:53.123Z,1653
2017-07-15T07:39:53.156Z,1721
2017-07-15T07:40:53.128Z,1732
2017-07-15T07:41:53.216Z,1670
2017-07-15T07:42:53.129Z,1805
2017-07-15T07:43:53.128Z,1828
2017-07-15T07:44:53.119Z,1738
2017-07-15T07:45:53.054Z,1783
2017-07-15T07:46:53.088Z,1580
2017-07-15T07:47:53.037Z,1575
2017-07-15T07:48:53.114Z,1524
2017-07-15T07:49:53.053Z,1586
2017-07-15T07:50:53.055Z,1327
2017-07-15T07:51:53.064Z,1350
2017-07-15T07:52:53.116Z,1575
2017-07-15T07:53:53.094Z,1479
2017-07-15T07:54:53.116Z,1721
2017-07-15T07:55:53.145Z,1586
2017-07-15T07:56:53.157Z,1428
2017-07-15T07:57:53.118Z,1434
2017-07-15T07:58:53.153Z,1237
2017-07-15T07:59:53.188Z,1350
2017-07-15T08:00:53.124Z,1333
2017-07-15T08:01:53.126Z,1164
2017-07-15T08:02:53.159Z,1119
2017-07-15T08:03:53.152Z,1068
2017-07-15T08:04:53.194Z,1057
2017-07-15T08:05:53.140Z,1181
2017-07-15T08:06:53.233Z,1271
2017-07-15T08:07:53.211Z,1293
2017-07-15T08:08:53.178Z,1395
2017-07-15T08:09:53.167Z,1366
2017-07-15T08:10:53.214Z,1389
2017-07-15T08:11:53.199Z,1563
2017-07-15T08:12:53.199Z,1451
2017-07-15T08:13:53.140Z,1445
2017-07-15T08:14:53.204Z,1530
2017-07-15T08:15:53.149Z,1878
2017-07-15T08:16:53.232Z,4089
2017-07-15T08:17:53.199Z,4584
2017-07-15T08:18:53.167Z,2176
2017-07-15T08:19:53.233Z,4550
2017-07-15T08:20:53.153Z,5203
2017-07-15T08:21:53.182Z,2160
2017-07-15T08:22:53.206Z,2756
2017-07-15T08:23:53.217Z,4876
2017-07-15T08:24:53.181Z,4038
2017-07-15T08:25:53.179Z,2193
2017-07-15T08:26:53.152Z,2283
2017-07-15T08:27:53.172Z,1963
2017-07-15T08:28:53.151Z,1670
2017-07-15T08:29:53.178Z,1805
2017-07-15T08:30:53.175Z,1861
2017-07-15T08:31:53.209Z,2058
2017-07-15T08:32:53.242Z,2868
2017-07-15T08:33:53.190Z,2750
2017-07-15T08:34:53.244Z,2750
2017-07-15T08:35:53.192Z,4483
2017-07-15T08:36:53.225Z,2160
2017-07-15T08:37:53.158Z,1861
2017-07-15T08:38:53.224Z,1867
2017-07-15T08:39:53.248Z,1968
2017-07-15T08:40:53.209Z,2030
2017-07-15T08:41:53.228Z,2058
2017-07-15T08:42:53.189Z,1996
2017-07-15T08:43:53.162Z,2120
2017-07-15T08:44:53.250Z,2317
2017-07-15T08:45:53.189Z,2604
2017-07-15T08:46:53.193Z,2835
2017-07-15T08:47:53.153Z,3048
2017-07-15T08:48:53.183Z,3442
2017-07-15T08:49:53.234Z,3121
2017-07-15T08:50:53.194Z,3358
2017-07-15T08:51:53.248Z,3498
2017-07-15T08:52:53.270Z,4410
2017-07-15T08:53:53.229Z,3144
2017-07-15T08:54:53.236Z,2908
2017-07-15T08:55:53.309Z,2846
2017-07-15T08:56:53.187Z,2688
2017-07-15T08:57:53.189Z,3172
2017-07-15T08:58:53.224Z,2311
2017-07-15T08:59:53.234Z,2137
2017-07-15T09:00:53.181Z,1935
2017-07-15T09:01:53.176Z,1749
2017-07-15T09:02:53.141Z,1603
2017-07-15T09:03:53.169Z,1479
2017-07-15T09:04:53.147Z,1406
2017-07-15T09:05:53.226Z,1338
2017-07-15T09:06:53.201Z,1321
2017-07-15T09:07:53.180Z,1293
2017-07-15T09:08:53.238Z,1254
2017-07-15T09:09:53.257Z,1243
2017-07-15T09:10:53.258Z,1243
2017-07-15T09:11:53.239Z,1276
2017-07-15T09:12:53.227Z,1260
2017-07-15T09:13:53.263Z,1231
2017-07-15T09:14:53.212Z,1209
2017-07-15T09:15:53.194Z,1209
2017-07-15T09:16:53.234Z,1215
2017-07-15T09:17:53.139Z,1237
2017-07-15T09:18:53.170Z,1271
2017-07-15T09:19:53.187Z,1293
2017-07-15T09:20:53.146Z,1305
2017-07-15T09:21:53.148Z,1316
2017-07-15T09:22:53.198Z,1299
2017-07-15T09:23:53.198Z,1327
2017-07-15T09:24:53.242Z,1411
2017-07-15T09:25:53.185Z,1518
2017-07-15T09:26:53.268Z,1631
2017-07-15T09:27:53.233Z,1726
2017-07-15T09:28:53.274Z,1811
2017-07-15T09:29:53.180Z,1918
2017-07-15T09:30:53.187Z,2019
2017-07-15T09:31:53.187Z,2143
2017-07-15T09:32:53.203Z,2278
2017-07-15T09:33:53.185Z,2401
2017-07-15T09:34:53.184Z,2458
2017-07-15T09:35:53.158Z,2486
2017-07-15T09:36:53.151Z,2542
2017-07-15T09:37:53.206Z,2570
2017-07-15T09:38:53.210Z,2570
2017-07-15T09:39:53.199Z,2581
2017-07-15T09:40:53.205Z,2716
2017-07-15T09:41:53.165Z,2880
2017-07-15T09:42:53.208Z,3054
2017-07-15T09:43:53.160Z,3223
2017-07-15T09:44:53.186Z,3088
2017-07-15T09:45:53.227Z,2958
2017-07-15T09:46:53.281Z,2030
2017-07-15T09:47:53.289Z,1608
2017-07-15T09:48:53.199Z,1423
2017-07-15T09:49:53.213Z,1350
2017-07-15T09:50:53.260Z,1288
2017-07-15T09:51:53.227Z,1265
2017-07-15T09:52:53.263Z,1276
2017-07-15T09:53:53.293Z,1310
2017-07-15T09:54:53.285Z,1372
2017-07-15T09:55:53.252Z,1501
2017-07-15T09:56:53.249Z,1726
2017-07-15T09:57:53.260Z,1980
2017-07-15T09:58:53.226Z,2295
2017-07-15T09:59:53.234Z,2655
2017-07-15T10:00:53.328Z,3268
2017-07-15T10:01:53.233Z,3588
2017-07-15T10:02:53.203Z,4145
2017-07-15T10:03:53.201Z,5889
2017-07-15T10:04:53.297Z,7211
2017-07-15T10:06:53.346Z,3954
2017-07-15T10:07:53.239Z,4336
2017-07-15T10:08:53.157Z,4871
2017-07-15T10:09:53.228Z,4865
2017-07-15T10:10:53.200Z,4775
2017-07-15T10:11:53.223Z,3403
2017-07-15T10:12:53.229Z,2992
2017-07-15T10:13:53.159Z,2835
2017-07-15T10:14:53.217Z,2750
2017-07-15T10:15:53.211Z,2520
2017-07-15T10:16:53.234Z,2458
2017-07-15T10:17:53.243Z,1940
2017-07-15T10:18:53.207Z,1704
2017-07-15T10:19:53.219Z,1288
2017-07-15T10:20:53.307Z,1091
2017-07-15T10:21:53.215Z,888
2017-07-15T10:22:53.282Z,652
2017-07-15T10:23:53.284Z,489
2017-07-15T10:24:53.305Z,405
2017-07-15T10:25:53.304Z,382
2017-07-15T10:26:53.214Z,382
2017-07-15T10:27:53.216Z,382
2017-07-15T10:28:53.253Z,371
2017-07-15T10:29:53.215Z,365
2017-07-15T10:30:53.215Z,382
2017-07-15T10:31:53.252Z,416
2017-07-15T10:32:53.222Z,506
2017-07-15T10:33:53.219Z,641
2017-07-15T10:34:53.277Z,781
2017-07-15T10:35:53.218Z,905
2017-07-15T10:36:53.288Z,1001
2017-07-15T10:37:53.252Z,1147
2017-07-15T10:38:53.281Z,1378
2017-07-15T10:39:53.255Z,1558
2017-07-15T10:40:53.259Z,1642
2017-07-15T10:41:53.317Z,1743
2017-07-15T10:42:53.272Z,1856
2017-07-15T10:43:53.290Z,1968
2017-07-15T10:44:53.319Z,2013
2017-07-15T10:45:53.315Z,2002
2017-07-15T10:46:53.320Z,2013
2017-07-15T10:47:53.259Z,2098
2017-07-15T10:48:53.225Z,2250
2017-07-15T10:49:53.227Z,2345
2017-07-15T10:50:53.233Z,1783
2017-07-15T10:51:53.226Z,1777
2017-07-15T10:52:53.250Z,1822
2017-07-15T10:53:53.263Z,2002
2017-07-15T10:54:53.232Z,2272
2017-07-15T10:55:53.285Z,4950
2017-07-15T10:56:53.296Z,5343
2017-07-15T10:57:53.234Z,2919
2017-07-15T10:58:53.233Z,2649
2017-07-15T10:59:53.303Z,2975
2017-07-15T11:00:53.307Z,6598
2017-07-15T11:01:53.326Z,2227
2017-07-15T11:02:53.256Z,2002
2017-07-15T11:03:53.270Z,1929
2017-07-15T11:04:53.267Z,1901
2017-07-15T11:05:53.251Z,1890
2017-07-15T11:06:53.251Z,1951
2017-07-15T11:07:53.254Z,1991
2017-07-15T11:08:53.259Z,2064
2017-07-15T11:09:53.258Z,2126
2017-07-15T11:10:53.250Z,2216
2017-07-15T11:11:53.262Z,2334
2017-07-15T11:12:53.253Z,2435
2017-07-15T11:13:53.308Z,2559
2017-07-15T11:14:53.254Z,2705
2017-07-15T11:15:53.235Z,2784
2017-07-15T11:16:53.258Z,4381
2017-07-15T11:17:53.237Z,7239
2017-07-15T11:18:53.247Z,4303
2017-07-15T11:19:53.245Z,3133
2017-07-15T11:20:53.380Z,3335
2017-07-15T11:21:53.198Z,3549
2017-07-15T11:22:53.252Z,4578
2017-07-15T11:23:53.245Z,4168
2017-07-15T11:24:53.263Z,3678
2017-07-15T11:25:53.181Z,3166
2017-07-15T11:26:53.246Z,2756
2017-07-15T11:27:53.234Z,2272
2017-07-15T11:28:53.261Z,2019
2017-07-15T11:29:53.259Z,1839
2017-07-15T11:30:53.262Z,1710
2017-07-15T11:31:53.260Z,1620
2017-07-15T11:32:53.302Z,1518
2017-07-15T11:33:53.228Z,1456
2017-07-15T11:34:53.247Z,1406
2017-07-15T11:35:53.326Z,1428
2017-07-15T11:36:53.277Z,1496
2017-07-15T11:37:53.324Z,1608
2017-07-15T11:38:53.257Z,1743
2017-07-15T11:39:53.260Z,1867
2017-07-15T11:40:53.343Z,2013
2017-07-15T11:41:53.255Z,2193
2017-07-15T11:42:53.283Z,2306
2017-07-15T11:43:53.320Z,2418
2017-07-15T11:44:53.324Z,2480
2017-07-15T11:45:53.354Z,2503
2017-07-15T11:46:53.263Z,2514
2017-07-15T11:47:53.285Z,2525
2017-07-15T11:48:53.317Z,2581
2017-07-15T11:49:53.355Z,2655
2017-07-15T11:50:53.266Z,2666
2017-07-15T11:51:53.291Z,2610
2017-07-15T11:52:53.336Z,2542
2017-07-15T11:53:53.355Z,2452
2017-07-15T11:54:53.357Z,2362
2017-07-15T11:55:53.305Z,2289
2017-07-15T11:56:53.287Z,2250
2017-07-15T11:57:53.299Z,2250
2017-07-15T11:58:53.289Z,2278
2017-07-15T11:59:53.299Z,2306
2017-07-15T12:00:53.330Z,2351
2017-07-15T12:01:53.340Z,2401
2017-07-15T12:02:53.305Z,2469
2017-07-15T12:03:53.355Z,2542
2017-07-15T12:04:53.277Z,2559
2017-07-15T12:05:53.309Z,2565
2017-07-15T12:06:53.339Z,2525
2017-07-15T12:07:53.308Z,2401
2017-07-15T12:08:53.310Z,2261
2017-07-15T12:09:53.299Z,2154
2017-07-15T12:10:53.305Z,2176
2017-07-15T12:11:53.311Z,2289
2017-07-15T12:12:53.341Z,2446
2017-07-15T12:13:53.340Z,3712
2017-07-15T12:14:53.359Z,3380
2017-07-15T12:15:53.308Z,3532
2017-07-15T12:16:53.278Z,3735
2017-07-15T12:17:53.330Z,5675
2017-07-15T12:18:53.298Z,3847
2017-07-15T12:19:53.361Z,4269
2017-07-15T12:20:53.342Z,6980
2017-07-15T12:21:53.342Z,7143
2017-07-15T12:22:53.303Z,5748
2017-07-15T12:23:53.306Z,5911
2017-07-15T12:24:53.302Z,2902
2017-07-15T12:25:53.214Z,2390
2017-07-15T12:26:53.284Z,2002
2017-07-15T12:27:53.243Z,1811
2017-07-15T12:28:53.219Z,1642
2017-07-15T12:29:53.331Z,1513
2017-07-15T12:30:53.279Z,1406
2017-07-15T12:31:53.296Z,1361
2017-07-15T12:32:53.218Z,1406
2017-07-15T12:33:53.282Z,1524
2017-07-15T12:34:53.219Z,1659
2017-07-15T12:35:53.297Z,1783
2017-07-15T12:36:53.309Z,2025
2017-07-15T12:37:53.265Z,2064
2017-07-15T12:38:53.282Z,2244
2017-07-15T12:39:53.296Z,2115
2017-07-15T12:40:53.312Z,2075
2017-07-15T12:41:53.320Z,2126
2017-07-15T12:42:53.244Z,2199
2017-07-15T12:43:53.255Z,2323
2017-07-15T12:44:53.299Z,2452
2017-07-15T12:45:53.267Z,2643
2017-07-15T12:46:53.329Z,2851
2017-07-15T12:47:53.300Z,3206
2017-07-15T12:48:53.378Z,3605
2017-07-15T12:49:53.320Z,3802
2017-07-15T12:50:53.328Z,3960
2017-07-15T12:51:53.351Z,4123
2017-07-15T12:52:53.334Z,4083
2017-07-15T12:53:53.324Z,3825
2017-07-15T12:54:53.388Z,3768
2017-07-15T12:55:53.350Z,3673
2017-07-15T12:56:53.293Z,3228
2017-07-15T12:57:53.253Z,3178
2017-07-15T12:58:53.322Z,2778
2017-07-15T12:59:53.334Z,2576
2017-07-15T13:00:53.320Z,1951
2017-07-15T13:01:53.314Z,1603
2017-07-15T13:02:53.298Z,1501
2017-07-15T13:03:53.326Z,1563
2017-07-15T13:04:53.302Z,1693
2017-07-15T13:05:53.304Z,1816
2017-07-15T13:06:53.363Z,1890
2017-07-15T13:07:53.340Z,1957
2017-07-15T13:08:53.406Z,1974
2017-07-15T13:09:53.403Z,1980
2017-07-15T13:10:53.336Z,1991
2017-07-15T13:11:53.317Z,1968
2017-07-15T13:12:53.308Z,1929
2017-07-15T13:13:53.341Z,1845
2017-07-15T13:14:53.335Z,1749
2017-07-15T13:15:53.320Z,1636
2017-07-15T13:16:53.366Z,1591
2017-07-15T13:17:53.279Z,1546
2017-07-15T13:18:53.328Z,1485
2017-07-15T13:19:53.334Z,1428
2017-07-15T13:20:53.328Z,1372
2017-07-15T13:21:53.326Z,1321
2017-07-15T13:22:53.372Z,1265
2017-07-15T13:23:53.310Z,1237
2017-07-15T13:24:53.297Z,1215
2017-07-15T13:25:53.328Z,1215
2017-07-15T13:26:53.320Z,1220
2017-07-15T13:27:53.321Z,1243
2017-07-15T13:28:53.409Z,1260
2017-07-15T13:29:53.357Z,1265
2017-07-15T13:30:53.384Z,1265
2017-07-15T13:31:53.387Z,1271
2017-07-15T13:32:53.347Z,1293
2017-07-15T13:33:53.383Z,1333
2017-07-15T13:34:53.325Z,1361
2017-07-15T13:35:53.321Z,1389
2017-07-15T13:36:53.391Z,1428
2017-07-15T13:37:53.325Z,1468
2017-07-15T13:38:53.361Z,1496
2017-07-15T13:39:53.400Z,1535
2017-07-15T13:40:53.364Z,1608
2017-07-15T13:41:53.395Z,1732
2017-07-15T13:42:53.325Z,1890
2017-07-15T13:43:53.386Z,2075
2017-07-15T13:44:53.391Z,2317
2017-07-15T13:45:53.427Z,2475
2017-07-15T13:46:53.331Z,2508
2017-07-15T13:47:53.355Z,2559
2017-07-15T13:48:53.366Z,2559
2017-07-15T13:49:53.336Z,2683
2017-07-15T13:50:53.337Z,2666